sensor_id;sensor_type;location;lat;lon;timestamp;P1;durP1;ratioP1;P2;durP2;ratioP2
21472;SDS011;10898;48.072;11.682;2023-07-31T00:00:09;2.10;;;1.85;;
21472;SDS011;10898;48.072;11.682;2023-07-31T00:02:11;3.28;;;2.45;;
21472;SDS011;10898;48.072;11.682;2023-07-31T00:04:13;2.92;;;2.00;;
21472;SDS011;10898;48.072;11.682;2023-07-31T00:06:15;2.60;;;1.90;;
21472;SDS011;10898;48.072;11.682;2023-07-31T00:08:16;4.53;;;2.20;;
21472;SDS011;10898;48.072;11.682;2023-07-31T00:10:18;13.88;;;2.42;;
21472;SDS011;10898;48.072;11.682;2023-07-31T00:12:20;3.37;;;2.20;;
21472;SDS011;10898;48.072;11.682;2023-07-31T00:14:22;4.28;;;1.92;;
21472;SDS011;10898;48.072;11.682;2023-07-31T00:16:24;2.63;;;2.10;;
21472;SDS011;10898;48.072;11.682;2023-07-31T00:18:26;3.40;;;1.95;;
21472;SDS011;10898;48.072;11.682;2023-07-31T00:20:28;4.93;;;2.42;;
21472;SDS011;10898;48.072;11.682;2023-07-31T00:22:29;3.15;;;1.95;;
21472;SDS011;10898;48.072;11.682;2023-07-31T00:24:31;4.37;;;1.90;;
21472;SDS011;10898;48.072;11.682;2023-07-31T00:26:33;2.42;;;1.92;;
21472;SDS011;10898;48.072;11.682;2023-07-31T00:28:35;3.30;;;2.30;;
21472;SDS011;10898;48.072;11.682;2023-07-31T00:30:37;3.73;;;2.50;;
21472;SDS011;10898;48.072;11.682;2023-07-31T00:32:39;3.05;;;2.33;;
21472;SDS011;10898;48.072;11.682;2023-07-31T00:34:41;6.07;;;2.30;;
21472;SDS011;10898;48.072;11.682;2023-07-31T00:36:43;3.57;;;2.40;;
21472;SDS011;10898;48.072;11.682;2023-07-31T00:38:45;3.88;;;2.33;;
21472;SDS011;10898;48.072;11.682;2023-07-31T00:40:47;5.17;;;2.07;;
21472;SDS011;10898;48.072;11.682;2023-07-31T00:42:48;5.80;;;2.47;;
21472;SDS011;10898;48.072;11.682;2023-07-31T00:44:50;3.80;;;2.30;;
21472;SDS011;10898;48.072;11.682;2023-07-31T00:46:52;3.03;;;2.10;;
21472;SDS011;10898;48.072;11.682;2023-07-31T00:48:56;4.50;;;2.20;;
21472;SDS011;10898;48.072;11.682;2023-07-31T00:50:58;3.03;;;2.13;;
21472;SDS011;10898;48.072;11.682;2023-07-31T00:53:00;3.65;;;2.00;;
21472;SDS011;10898;48.072;11.682;2023-07-31T00:55:02;2.33;;;1.90;;
21472;SDS011;10898;48.072;11.682;2023-07-31T00:57:04;4.05;;;2.55;;
21472;SDS011;10898;48.072;11.682;2023-07-31T00:59:08;3.00;;;2.00;;
21472;SDS011;10898;48.072;11.682;2023-07-31T01:01:10;3.53;;;2.23;;
21472;SDS011;10898;48.072;11.682;2023-07-31T01:03:12;3.83;;;2.22;;
21472;SDS011;10898;48.072;11.682;2023-07-31T01:05:14;2.00;;;1.80;;
21472;SDS011;10898;48.072;11.682;2023-07-31T01:12:19;3.75;;;2.08;;
21472;SDS011;10898;48.072;11.682;2023-07-31T01:14:22;5.00;;;2.30;;
21472;SDS011;10898;48.072;11.682;2023-07-31T01:16:27;2.37;;;2.17;;
21472;SDS011;10898;48.072;11.682;2023-07-31T01:18:29;2.67;;;2.10;;
21472;SDS011;10898;48.072;11.682;2023-07-31T01:20:31;5.85;;;2.08;;
21472;SDS011;10898;48.072;11.682;2023-07-31T01:27:40;3.63;;;1.80;;
21472;SDS011;10898;48.072;11.682;2023-07-31T01:30:05;5.18;;;2.63;;
21472;SDS011;10898;48.072;11.682;2023-07-31T01:32:15;4.82;;;2.28;;
21472;SDS011;10898;48.072;11.682;2023-07-31T01:34:19;3.47;;;2.08;;
21472;SDS011;10898;48.072;11.682;2023-07-31T01:36:23;2.88;;;2.20;;
21472;SDS011;10898;48.072;11.682;2023-07-31T01:38:25;6.28;;;2.30;;
21472;SDS011;10898;48.072;11.682;2023-07-31T01:40:27;3.13;;;2.22;;
21472;SDS011;10898;48.072;11.682;2023-07-31T01:42:29;3.67;;;1.75;;
21472;SDS011;10898;48.072;11.682;2023-07-31T01:44:31;2.83;;;1.67;;
21472;SDS011;10898;48.072;11.682;2023-07-31T01:48:36;4.72;;;2.10;;
21472;SDS011;10898;48.072;11.682;2023-07-31T01:50:38;2.70;;;1.98;;
21472;SDS011;10898;48.072;11.682;2023-07-31T01:52:40;3.67;;;2.00;;
21472;SDS011;10898;48.072;11.682;2023-07-31T01:54:41;3.10;;;2.10;;
21472;SDS011;10898;48.072;11.682;2023-07-31T01:56:43;3.55;;;2.20;;
21472;SDS011;10898;48.072;11.682;2023-07-31T01:58:45;5.43;;;2.67;;
21472;SDS011;10898;48.072;11.682;2023-07-31T02:00:47;4.20;;;2.67;;
21472;SDS011;10898;48.072;11.682;2023-07-31T02:02:48;3.67;;;2.40;;
21472;SDS011;10898;48.072;11.682;2023-07-31T02:04:50;4.87;;;2.20;;
21472;SDS011;10898;48.072;11.682;2023-07-31T02:06:52;3.05;;;2.00;;
21472;SDS011;10898;48.072;11.682;2023-07-31T02:08:55;2.60;;;2.00;;
21472;SDS011;10898;48.072;11.682;2023-07-31T02:10:56;4.00;;;2.03;;
21472;SDS011;10898;48.072;11.682;2023-07-31T02:12:58;3.67;;;1.95;;
21472;SDS011;10898;48.072;11.682;2023-07-31T02:15:00;7.95;;;2.70;;
21472;SDS011;10898;48.072;11.682;2023-07-31T02:17:02;4.70;;;2.17;;
21472;SDS011;10898;48.072;11.682;2023-07-31T02:19:04;3.60;;;2.20;;
21472;SDS011;10898;48.072;11.682;2023-07-31T02:21:06;3.50;;;2.27;;
21472;SDS011;10898;48.072;11.682;2023-07-31T02:23:08;6.65;;;2.60;;
21472;SDS011;10898;48.072;11.682;2023-07-31T02:25:10;2.90;;;2.55;;
21472;SDS011;10898;48.072;11.682;2023-07-31T02:27:11;4.63;;;2.57;;
21472;SDS011;10898;48.072;11.682;2023-07-31T02:29:13;7.38;;;2.85;;
21472;SDS011;10898;48.072;11.682;2023-07-31T02:31:15;3.43;;;2.20;;
21472;SDS011;10898;48.072;11.682;2023-07-31T02:33:18;3.25;;;2.08;;
21472;SDS011;10898;48.072;11.682;2023-07-31T02:35:20;2.75;;;2.00;;
21472;SDS011;10898;48.072;11.682;2023-07-31T02:37:22;5.30;;;2.20;;
21472;SDS011;10898;48.072;11.682;2023-07-31T02:39:24;5.10;;;2.30;;
21472;SDS011;10898;48.072;11.682;2023-07-31T02:41:26;3.93;;;1.97;;
21472;SDS011;10898;48.072;11.682;2023-07-31T02:43:28;2.03;;;1.80;;
21472;SDS011;10898;48.072;11.682;2023-07-31T02:45:30;2.73;;;2.20;;
21472;SDS011;10898;48.072;11.682;2023-07-31T02:47:32;2.60;;;2.08;;
21472;SDS011;10898;48.072;11.682;2023-07-31T02:49:34;2.33;;;2.13;;
21472;SDS011;10898;48.072;11.682;2023-07-31T02:51:36;5.00;;;2.40;;
21472;SDS011;10898;48.072;11.682;2023-07-31T02:53:38;3.60;;;2.40;;
21472;SDS011;10898;48.072;11.682;2023-07-31T02:55:40;6.15;;;2.40;;
21472;SDS011;10898;48.072;11.682;2023-07-31T02:57:42;3.92;;;2.70;;
21472;SDS011;10898;48.072;11.682;2023-07-31T02:59:44;2.65;;;2.42;;
21472;SDS011;10898;48.072;11.682;2023-07-31T03:01:46;4.55;;;2.60;;
21472;SDS011;10898;48.072;11.682;2023-07-31T03:03:48;8.00;;;2.60;;
21472;SDS011;10898;48.072;11.682;2023-07-31T03:05:49;4.15;;;2.15;;
21472;SDS011;10898;48.072;11.682;2023-07-31T03:07:52;4.88;;;2.10;;
21472;SDS011;10898;48.072;11.682;2023-07-31T03:09:54;2.72;;;2.30;;
21472;SDS011;10898;48.072;11.682;2023-07-31T03:11:56;3.08;;;2.33;;
21472;SDS011;10898;48.072;11.682;2023-07-31T03:13:58;5.07;;;2.80;;
21472;SDS011;10898;48.072;11.682;2023-07-31T03:16:00;4.37;;;2.40;;
21472;SDS011;10898;48.072;11.682;2023-07-31T03:18:02;2.17;;;1.97;;
21472;SDS011;10898;48.072;11.682;2023-07-31T03:20:04;3.97;;;2.72;;
21472;SDS011;10898;48.072;11.682;2023-07-31T03:22:06;6.13;;;2.55;;
21472;SDS011;10898;48.072;11.682;2023-07-31T03:24:08;3.58;;;2.75;;
21472;SDS011;10898;48.072;11.682;2023-07-31T03:26:10;4.07;;;2.42;;
21472;SDS011;10898;48.072;11.682;2023-07-31T03:28:11;6.03;;;2.37;;
21472;SDS011;10898;48.072;11.682;2023-07-31T03:30:13;3.88;;;2.58;;
21472;SDS011;10898;48.072;11.682;2023-07-31T03:32:15;4.45;;;2.67;;
21472;SDS011;10898;48.072;11.682;2023-07-31T03:34:17;3.10;;;2.38;;
21472;SDS011;10898;48.072;11.682;2023-07-31T03:36:19;2.70;;;2.27;;
21472;SDS011;10898;48.072;11.682;2023-07-31T03:38:21;3.30;;;2.83;;
21472;SDS011;10898;48.072;11.682;2023-07-31T03:40:22;4.87;;;2.73;;
21472;SDS011;10898;48.072;11.682;2023-07-31T03:42:24;4.53;;;2.60;;
21472;SDS011;10898;48.072;11.682;2023-07-31T03:44:26;3.53;;;2.63;;
21472;SDS011;10898;48.072;11.682;2023-07-31T03:46:28;6.10;;;2.67;;
21472;SDS011;10898;48.072;11.682;2023-07-31T03:48:30;4.23;;;3.20;;
21472;SDS011;10898;48.072;11.682;2023-07-31T03:50:32;3.80;;;2.50;;
21472;SDS011;10898;48.072;11.682;2023-07-31T03:52:33;4.38;;;2.75;;
21472;SDS011;10898;48.072;11.682;2023-07-31T03:54:35;3.33;;;2.73;;
21472;SDS011;10898;48.072;11.682;2023-07-31T03:56:37;3.70;;;2.37;;
21472;SDS011;10898;48.072;11.682;2023-07-31T03:58:40;4.35;;;2.63;;
21472;SDS011;10898;48.072;11.682;2023-07-31T04:00:42;3.10;;;2.40;;
21472;SDS011;10898;48.072;11.682;2023-07-31T04:02:44;4.93;;;3.00;;
21472;SDS011;10898;48.072;11.682;2023-07-31T04:04:46;3.17;;;2.40;;
21472;SDS011;10898;48.072;11.682;2023-07-31T04:06:47;4.47;;;3.23;;
21472;SDS011;10898;48.072;11.682;2023-07-31T04:08:49;4.53;;;2.80;;
21472;SDS011;10898;48.072;11.682;2023-07-31T04:10:51;3.43;;;2.63;;
21472;SDS011;10898;48.072;11.682;2023-07-31T04:12:53;4.43;;;3.10;;
21472;SDS011;10898;48.072;11.682;2023-07-31T04:14:55;4.65;;;2.60;;
21472;SDS011;10898;48.072;11.682;2023-07-31T04:16:57;4.93;;;2.67;;
21472;SDS011;10898;48.072;11.682;2023-07-31T04:18:59;3.90;;;2.80;;
21472;SDS011;10898;48.072;11.682;2023-07-31T04:21:01;4.13;;;2.28;;
21472;SDS011;10898;48.072;11.682;2023-07-31T04:23:03;4.90;;;2.47;;
21472;SDS011;10898;48.072;11.682;2023-07-31T04:25:05;4.82;;;2.38;;
21472;SDS011;10898;48.072;11.682;2023-07-31T04:27:07;4.20;;;2.80;;
21472;SDS011;10898;48.072;11.682;2023-07-31T04:29:09;5.03;;;2.57;;
21472;SDS011;10898;48.072;11.682;2023-07-31T04:31:11;4.53;;;2.33;;
21472;SDS011;10898;48.072;11.682;2023-07-31T04:33:13;4.20;;;3.00;;
21472;SDS011;10898;48.072;11.682;2023-07-31T04:35:15;3.10;;;2.80;;
21472;SDS011;10898;48.072;11.682;2023-07-31T04:37:17;5.30;;;3.00;;
21472;SDS011;10898;48.072;11.682;2023-07-31T04:39:19;4.68;;;3.17;;
21472;SDS011;10898;48.072;11.682;2023-07-31T04:41:20;4.23;;;3.20;;
21472;SDS011;10898;48.072;11.682;2023-07-31T04:43:22;3.47;;;2.90;;
21472;SDS011;10898;48.072;11.682;2023-07-31T04:45:24;3.50;;;2.63;;
21472;SDS011;10898;48.072;11.682;2023-07-31T04:47:26;5.15;;;3.15;;
21472;SDS011;10898;48.072;11.682;2023-07-31T04:49:28;3.20;;;2.50;;
21472;SDS011;10898;48.072;11.682;2023-07-31T04:51:30;5.13;;;3.27;;
21472;SDS011;10898;48.072;11.682;2023-07-31T04:53:32;3.08;;;2.78;;
21472;SDS011;10898;48.072;11.682;2023-07-31T04:55:34;3.97;;;3.17;;
21472;SDS011;10898;48.072;11.682;2023-07-31T04:57:35;3.92;;;2.45;;
21472;SDS011;10898;48.072;11.682;2023-07-31T04:59:37;5.03;;;2.70;;
21472;SDS011;10898;48.072;11.682;2023-07-31T05:01:39;4.03;;;3.07;;
21472;SDS011;10898;48.072;11.682;2023-07-31T05:03:41;3.23;;;2.70;;
21472;SDS011;10898;48.072;11.682;2023-07-31T05:05:43;5.47;;;3.22;;
21472;SDS011;10898;48.072;11.682;2023-07-31T05:07:45;4.25;;;2.95;;
21472;SDS011;10898;48.072;11.682;2023-07-31T05:09:47;3.65;;;2.90;;
21472;SDS011;10898;48.072;11.682;2023-07-31T05:11:49;3.80;;;3.20;;
21472;SDS011;10898;48.072;11.682;2023-07-31T05:13:50;4.27;;;2.40;;
21472;SDS011;10898;48.072;11.682;2023-07-31T05:15:52;4.38;;;2.80;;
21472;SDS011;10898;48.072;11.682;2023-07-31T05:19:57;7.20;;;2.78;;
21472;SDS011;10898;48.072;11.682;2023-07-31T05:21:59;3.53;;;2.90;;
21472;SDS011;10898;48.072;11.682;2023-07-31T05:24:01;3.45;;;3.13;;
21472;SDS011;10898;48.072;11.682;2023-07-31T05:26:05;2.95;;;2.58;;
21472;SDS011;10898;48.072;11.682;2023-07-31T05:28:08;5.68;;;3.03;;
21472;SDS011;10898;48.072;11.682;2023-07-31T05:30:10;2.97;;;2.60;;
21472;SDS011;10898;48.072;11.682;2023-07-31T05:32:12;5.93;;;3.33;;
21472;SDS011;10898;48.072;11.682;2023-07-31T05:34:14;4.05;;;3.08;;
21472;SDS011;10898;48.072;11.682;2023-07-31T05:36:16;4.47;;;2.88;;
21472;SDS011;10898;48.072;11.682;2023-07-31T05:38:18;5.32;;;3.17;;
21472;SDS011;10898;48.072;11.682;2023-07-31T05:40:20;2.80;;;2.50;;
21472;SDS011;10898;48.072;11.682;2023-07-31T05:42:22;5.82;;;3.17;;
21472;SDS011;10898;48.072;11.682;2023-07-31T05:44:24;3.33;;;2.50;;
21472;SDS011;10898;48.072;11.682;2023-07-31T05:46:26;5.87;;;2.47;;
21472;SDS011;10898;48.072;11.682;2023-07-31T05:48:28;3.08;;;2.85;;
21472;SDS011;10898;48.072;11.682;2023-07-31T05:50:30;4.33;;;2.57;;
21472;SDS011;10898;48.072;11.682;2023-07-31T05:52:32;4.82;;;2.78;;
21472;SDS011;10898;48.072;11.682;2023-07-31T05:54:34;3.75;;;2.50;;
21472;SDS011;10898;48.072;11.682;2023-07-31T05:56:36;4.53;;;2.20;;
21472;SDS011;10898;48.072;11.682;2023-07-31T05:58:38;8.02;;;2.72;;
21472;SDS011;10898;48.072;11.682;2023-07-31T06:00:43;6.03;;;2.88;;
21472;SDS011;10898;48.072;11.682;2023-07-31T06:02:45;5.38;;;2.47;;
21472;SDS011;10898;48.072;11.682;2023-07-31T06:06:50;5.03;;;2.42;;
21472;SDS011;10898;48.072;11.682;2023-07-31T06:08:52;3.47;;;2.50;;
21472;SDS011;10898;48.072;11.682;2023-07-31T06:10:54;3.73;;;2.23;;
21472;SDS011;10898;48.072;11.682;2023-07-31T06:12:56;3.75;;;2.55;;
21472;SDS011;10898;48.072;11.682;2023-07-31T06:14:58;2.90;;;2.10;;
21472;SDS011;10898;48.072;11.682;2023-07-31T06:17:01;4.40;;;2.50;;
21472;SDS011;10898;48.072;11.682;2023-07-31T06:19:02;4.43;;;2.20;;
21472;SDS011;10898;48.072;11.682;2023-07-31T06:21:04;2.58;;;2.30;;
21472;SDS011;10898;48.072;11.682;2023-07-31T06:23:06;4.10;;;2.47;;
21472;SDS011;10898;48.072;11.682;2023-07-31T06:25:08;3.90;;;2.22;;
21472;SDS011;10898;48.072;11.682;2023-07-31T06:27:15;3.20;;;2.30;;
21472;SDS011;10898;48.072;11.682;2023-07-31T06:29:17;7.22;;;2.40;;
21472;SDS011;10898;48.072;11.682;2023-07-31T06:31:19;4.68;;;2.30;;
21472;SDS011;10898;48.072;11.682;2023-07-31T06:33:24;3.38;;;2.47;;
21472;SDS011;10898;48.072;11.682;2023-07-31T06:35:26;2.53;;;2.03;;
21472;SDS011;10898;48.072;11.682;2023-07-31T06:37:28;4.70;;;2.00;;
21472;SDS011;10898;48.072;11.682;2023-07-31T06:39:30;3.60;;;2.40;;
21472;SDS011;10898;48.072;11.682;2023-07-31T06:41:32;4.03;;;2.50;;
21472;SDS011;10898;48.072;11.682;2023-07-31T06:43:34;5.90;;;2.38;;
21472;SDS011;10898;48.072;11.682;2023-07-31T06:45:36;4.28;;;2.42;;
21472;SDS011;10898;48.072;11.682;2023-07-31T06:47:38;2.30;;;2.10;;
21472;SDS011;10898;48.072;11.682;2023-07-31T06:49:40;3.80;;;2.15;;
21472;SDS011;10898;48.072;11.682;2023-07-31T06:51:42;5.20;;;2.30;;
21472;SDS011;10898;48.072;11.682;2023-07-31T06:53:45;4.70;;;2.40;;
21472;SDS011;10898;48.072;11.682;2023-07-31T06:55:47;3.42;;;1.95;;
21472;SDS011;10898;48.072;11.682;2023-07-31T06:57:50;3.40;;;2.10;;
21472;SDS011;10898;48.072;11.682;2023-07-31T06:59:52;4.03;;;2.15;;
21472;SDS011;10898;48.072;11.682;2023-07-31T07:01:54;5.67;;;1.90;;
21472;SDS011;10898;48.072;11.682;2023-07-31T07:03:56;3.08;;;2.05;;
21472;SDS011;10898;48.072;11.682;2023-07-31T07:05:58;6.53;;;1.92;;
21472;SDS011;10898;48.072;11.682;2023-07-31T07:08:00;3.13;;;2.03;;
21472;SDS011;10898;48.072;11.682;2023-07-31T07:10:02;3.80;;;2.08;;
21472;SDS011;10898;48.072;11.682;2023-07-31T07:12:05;3.22;;;2.30;;
21472;SDS011;10898;48.072;11.682;2023-07-31T07:14:07;4.72;;;2.20;;
21472;SDS011;10898;48.072;11.682;2023-07-31T07:16:09;6.77;;;2.00;;
21472;SDS011;10898;48.072;11.682;2023-07-31T07:20:13;2.13;;;1.88;;
21472;SDS011;10898;48.072;11.682;2023-07-31T07:22:15;4.70;;;2.53;;
21472;SDS011;10898;48.072;11.682;2023-07-31T07:24:17;2.90;;;2.10;;
21472;SDS011;10898;48.072;11.682;2023-07-31T07:26:19;2.37;;;1.83;;
21472;SDS011;10898;48.072;11.682;2023-07-31T07:28:21;4.45;;;2.00;;
21472;SDS011;10898;48.072;11.682;2023-07-31T07:30:23;4.35;;;2.10;;
21472;SDS011;10898;48.072;11.682;2023-07-31T07:32:26;2.38;;;2.10;;
21472;SDS011;10898;48.072;11.682;2023-07-31T07:34:28;3.83;;;2.17;;
21472;SDS011;10898;48.072;11.682;2023-07-31T07:36:30;4.07;;;1.97;;
21472;SDS011;10898;48.072;11.682;2023-07-31T07:38:33;6.22;;;1.90;;
21472;SDS011;10898;48.072;11.682;2023-07-31T07:40:39;4.03;;;2.28;;
21472;SDS011;10898;48.072;11.682;2023-07-31T07:42:41;3.50;;;2.00;;
21472;SDS011;10898;48.072;11.682;2023-07-31T07:44:43;2.58;;;1.83;;
21472;SDS011;10898;48.072;11.682;2023-07-31T07:46:44;3.38;;;1.98;;
21472;SDS011;10898;48.072;11.682;2023-07-31T07:48:46;3.40;;;1.97;;
21472;SDS011;10898;48.072;11.682;2023-07-31T07:50:48;3.17;;;1.60;;
21472;SDS011;10898;48.072;11.682;2023-07-31T07:52:50;5.18;;;2.10;;
21472;SDS011;10898;48.072;11.682;2023-07-31T07:54:52;4.23;;;2.00;;
21472;SDS011;10898;48.072;11.682;2023-07-31T07:56:54;3.30;;;2.10;;
21472;SDS011;10898;48.072;11.682;2023-07-31T07:58:56;3.10;;;1.93;;
21472;SDS011;10898;48.072;11.682;2023-07-31T08:00:58;3.72;;;2.58;;
21472;SDS011;10898;48.072;11.682;2023-07-31T08:03:00;3.67;;;1.93;;
21472;SDS011;10898;48.072;11.682;2023-07-31T08:05:02;2.85;;;2.17;;
21472;SDS011;10898;48.072;11.682;2023-07-31T08:07:04;5.55;;;2.22;;
21472;SDS011;10898;48.072;11.682;2023-07-31T08:09:06;3.37;;;2.23;;
21472;SDS011;10898;48.072;11.682;2023-07-31T08:11:09;5.35;;;2.42;;
21472;SDS011;10898;48.072;11.682;2023-07-31T08:13:11;4.47;;;2.10;;
21472;SDS011;10898;48.072;11.682;2023-07-31T08:15:13;3.40;;;2.13;;
21472;SDS011;10898;48.072;11.682;2023-07-31T08:17:15;4.47;;;1.93;;
21472;SDS011;10898;48.072;11.682;2023-07-31T08:19:17;4.63;;;2.00;;
21472;SDS011;10898;48.072;11.682;2023-07-31T08:21:19;2.25;;;1.40;;
21472;SDS011;10898;48.072;11.682;2023-07-31T08:23:21;2.33;;;1.80;;
21472;SDS011;10898;48.072;11.682;2023-07-31T08:25:23;5.93;;;2.20;;
21472;SDS011;10898;48.072;11.682;2023-07-31T08:29:27;3.60;;;2.17;;
21472;SDS011;10898;48.072;11.682;2023-07-31T08:31:29;2.17;;;1.80;;
21472;SDS011;10898;48.072;11.682;2023-07-31T08:33:31;2.35;;;1.77;;
21472;SDS011;10898;48.072;11.682;2023-07-31T08:35:33;2.63;;;1.60;;
21472;SDS011;10898;48.072;11.682;2023-07-31T08:37:35;6.60;;;1.95;;
21472;SDS011;10898;48.072;11.682;2023-07-31T08:39:38;5.63;;;2.00;;
21472;SDS011;10898;48.072;11.682;2023-07-31T08:41:41;2.90;;;1.92;;
21472;SDS011;10898;48.072;11.682;2023-07-31T08:43:44;3.57;;;1.97;;
21472;SDS011;10898;48.072;11.682;2023-07-31T08:45:50;2.30;;;1.60;;
21472;SDS011;10898;48.072;11.682;2023-07-31T08:47:52;3.42;;;1.80;;
21472;SDS011;10898;48.072;11.682;2023-07-31T08:49:54;4.47;;;1.92;;
21472;SDS011;10898;48.072;11.682;2023-07-31T08:53:59;2.28;;;1.80;;
21472;SDS011;10898;48.072;11.682;2023-07-31T08:56:01;4.25;;;2.08;;
21472;SDS011;10898;48.072;11.682;2023-07-31T09:00:08;6.30;;;2.35;;
21472;SDS011;10898;48.072;11.682;2023-07-31T09:02:12;3.85;;;2.03;;
21472;SDS011;10898;48.072;11.682;2023-07-31T09:04:16;4.25;;;1.90;;
21472;SDS011;10898;48.072;11.682;2023-07-31T09:06:21;2.17;;;1.70;;
21472;SDS011;10898;48.072;11.682;2023-07-31T09:08:25;3.40;;;2.13;;
21472;SDS011;10898;48.072;11.682;2023-07-31T09:10:30;4.85;;;1.90;;
21472;SDS011;10898;48.072;11.682;2023-07-31T09:12:32;3.45;;;2.00;;
21472;SDS011;10898;48.072;11.682;2023-07-31T09:14:35;4.95;;;2.17;;
21472;SDS011;10898;48.072;11.682;2023-07-31T09:16:50;5.80;;;2.20;;
21472;SDS011;10898;48.072;11.682;2023-07-31T09:18:54;4.75;;;2.20;;
21472;SDS011;10898;48.072;11.682;2023-07-31T09:21:01;4.55;;;2.20;;
21472;SDS011;10898;48.072;11.682;2023-07-31T09:23:11;6.35;;;2.33;;
21472;SDS011;10898;48.072;11.682;2023-07-31T09:27:20;2.33;;;1.80;;
21472;SDS011;10898;48.072;11.682;2023-07-31T09:29:22;3.53;;;2.00;;
21472;SDS011;10898;48.072;11.682;2023-07-31T09:31:42;5.38;;;2.05;;
21472;SDS011;10898;48.072;11.682;2023-07-31T09:33:54;3.28;;;1.83;;
21472;SDS011;10898;48.072;11.682;2023-07-31T09:35:58;5.20;;;2.03;;
21472;SDS011;10898;48.072;11.682;2023-07-31T09:38:05;3.30;;;1.98;;
21472;SDS011;10898;48.072;11.682;2023-07-31T09:40:10;4.03;;;2.00;;
21472;SDS011;10898;48.072;11.682;2023-07-31T09:42:35;7.75;;;1.67;;
21472;SDS011;10898;48.072;11.682;2023-07-31T09:44:38;5.47;;;2.10;;
21472;SDS011;10898;48.072;11.682;2023-07-31T09:46:42;5.15;;;2.65;;
21472;SDS011;10898;48.072;11.682;2023-07-31T09:50:47;3.30;;;1.90;;
21472;SDS011;10898;48.072;11.682;2023-07-31T09:52:51;3.00;;;1.77;;
21472;SDS011;10898;48.072;11.682;2023-07-31T09:54:53;3.15;;;1.77;;
21472;SDS011;10898;48.072;11.682;2023-07-31T09:56:55;2.88;;;2.13;;
21472;SDS011;10898;48.072;11.682;2023-07-31T09:58:59;3.47;;;1.60;;
21472;SDS011;10898;48.072;11.682;2023-07-31T10:01:03;3.40;;;1.95;;
21472;SDS011;10898;48.072;11.682;2023-07-31T10:03:06;2.53;;;1.80;;
21472;SDS011;10898;48.072;11.682;2023-07-31T10:05:09;5.07;;;1.67;;
21472;SDS011;10898;48.072;11.682;2023-07-31T10:07:15;3.88;;;1.75;;
21472;SDS011;10898;48.072;11.682;2023-07-31T10:09:19;4.15;;;2.03;;
21472;SDS011;10898;48.072;11.682;2023-07-31T10:11:24;3.60;;;1.80;;
21472;SDS011;10898;48.072;11.682;2023-07-31T10:13:31;3.53;;;1.90;;
21472;SDS011;10898;48.072;11.682;2023-07-31T10:15:33;5.07;;;1.70;;
21472;SDS011;10898;48.072;11.682;2023-07-31T10:17:37;2.60;;;1.60;;
21472;SDS011;10898;48.072;11.682;2023-07-31T10:19:39;5.10;;;1.73;;
21472;SDS011;10898;48.072;11.682;2023-07-31T10:21:42;3.15;;;1.70;;
21472;SDS011;10898;48.072;11.682;2023-07-31T10:25:47;4.55;;;1.95;;
21472;SDS011;10898;48.072;11.682;2023-07-31T10:27:51;3.65;;;1.60;;
21472;SDS011;10898;48.072;11.682;2023-07-31T10:29:55;4.35;;;1.75;;
21472;SDS011;10898;48.072;11.682;2023-07-31T10:31:58;4.55;;;1.80;;
21472;SDS011;10898;48.072;11.682;2023-07-31T10:36:14;3.70;;;2.00;;
21472;SDS011;10898;48.072;11.682;2023-07-31T10:38:20;2.65;;;1.90;;
21472;SDS011;10898;48.072;11.682;2023-07-31T10:40:25;1.98;;;1.65;;
21472;SDS011;10898;48.072;11.682;2023-07-31T10:42:37;3.35;;;1.50;;
21472;SDS011;10898;48.072;11.682;2023-07-31T10:44:46;2.42;;;1.65;;
21472;SDS011;10898;48.072;11.682;2023-07-31T10:46:48;3.80;;;1.50;;
21472;SDS011;10898;48.072;11.682;2023-07-31T10:48:57;2.22;;;1.88;;
21472;SDS011;10898;48.072;11.682;2023-07-31T10:51:06;2.28;;;1.58;;
21472;SDS011;10898;48.072;11.682;2023-07-31T10:53:10;3.05;;;1.30;;
21472;SDS011;10898;48.072;11.682;2023-07-31T10:57:31;2.78;;;2.10;;
21472;SDS011;10898;48.072;11.682;2023-07-31T10:59:36;3.92;;;1.50;;
21472;SDS011;10898;48.072;11.682;2023-07-31T11:01:51;2.65;;;1.50;;
21472;SDS011;10898;48.072;11.682;2023-07-31T11:03:58;2.53;;;1.95;;
21472;SDS011;10898;48.072;11.682;2023-07-31T11:06:02;4.55;;;1.80;;
21472;SDS011;10898;48.072;11.682;2023-07-31T11:10:11;2.65;;;1.98;;
21472;SDS011;10898;48.072;11.682;2023-07-31T11:12:16;3.83;;;1.80;;
21472;SDS011;10898;48.072;11.682;2023-07-31T11:14:20;3.03;;;2.03;;
21472;SDS011;10898;48.072;11.682;2023-07-31T11:18:25;2.47;;;1.45;;
21472;SDS011;10898;48.072;11.682;2023-07-31T11:20:31;4.22;;;2.40;;
21472;SDS011;10898;48.072;11.682;2023-07-31T11:22:34;4.20;;;2.13;;
21472;SDS011;10898;48.072;11.682;2023-07-31T11:24:37;3.63;;;1.77;;
21472;SDS011;10898;48.072;11.682;2023-07-31T11:26:39;3.13;;;1.97;;
21472;SDS011;10898;48.072;11.682;2023-07-31T11:28:50;2.67;;;1.67;;
21472;SDS011;10898;48.072;11.682;2023-07-31T11:30:54;7.07;;;2.08;;
21472;SDS011;10898;48.072;11.682;2023-07-31T11:32:57;2.35;;;1.80;;
21472;SDS011;10898;48.072;11.682;2023-07-31T11:35:02;1.73;;;1.60;;
21472;SDS011;10898;48.072;11.682;2023-07-31T11:37:05;3.28;;;2.20;;
21472;SDS011;10898;48.072;11.682;2023-07-31T11:39:07;2.77;;;1.73;;
21472;SDS011;10898;48.072;11.682;2023-07-31T11:41:10;4.45;;;1.75;;
21472;SDS011;10898;48.072;11.682;2023-07-31T11:43:14;5.20;;;2.03;;
21472;SDS011;10898;48.072;11.682;2023-07-31T11:45:18;2.55;;;1.83;;
21472;SDS011;10898;48.072;11.682;2023-07-31T11:47:20;3.65;;;1.98;;
21472;SDS011;10898;48.072;11.682;2023-07-31T11:49:22;3.85;;;2.05;;
21472;SDS011;10898;48.072;11.682;2023-07-31T11:51:24;3.28;;;1.55;;
21472;SDS011;10898;48.072;11.682;2023-07-31T11:55:37;2.72;;;1.88;;
21472;SDS011;10898;48.072;11.682;2023-07-31T11:57:40;1.95;;;1.67;;
21472;SDS011;10898;48.072;11.682;2023-07-31T11:59:44;2.75;;;2.03;;
21472;SDS011;10898;48.072;11.682;2023-07-31T12:01:46;4.25;;;2.08;;
21472;SDS011;10898;48.072;11.682;2023-07-31T12:03:51;3.17;;;2.10;;
21472;SDS011;10898;48.072;11.682;2023-07-31T12:05:54;4.47;;;1.50;;
21472;SDS011;10898;48.072;11.682;2023-07-31T12:07:56;4.25;;;1.85;;
21472;SDS011;10898;48.072;11.682;2023-07-31T12:09:59;3.28;;;1.70;;
21472;SDS011;10898;48.072;11.682;2023-07-31T12:12:00;2.40;;;1.60;;
21472;SDS011;10898;48.072;11.682;2023-07-31T12:14:04;2.60;;;1.52;;
21472;SDS011;10898;48.072;11.682;2023-07-31T12:18:11;2.45;;;1.70;;
21472;SDS011;10898;48.072;11.682;2023-07-31T12:20:14;3.72;;;1.90;;
21472;SDS011;10898;48.072;11.682;2023-07-31T12:22:16;2.93;;;2.07;;
21472;SDS011;10898;48.072;11.682;2023-07-31T12:24:19;3.55;;;1.77;;
21472;SDS011;10898;48.072;11.682;2023-07-31T12:26:21;2.70;;;1.60;;
21472;SDS011;10898;48.072;11.682;2023-07-31T12:28:24;2.33;;;1.65;;
21472;SDS011;10898;48.072;11.682;2023-07-31T12:30:31;3.50;;;1.80;;
21472;SDS011;10898;48.072;11.682;2023-07-31T12:32:36;3.55;;;1.63;;
21472;SDS011;10898;48.072;11.682;2023-07-31T12:36:44;3.30;;;1.98;;
21472;SDS011;10898;48.072;11.682;2023-07-31T12:38:46;2.80;;;1.73;;
21472;SDS011;10898;48.072;11.682;2023-07-31T12:40:48;3.20;;;1.90;;
21472;SDS011;10898;48.072;11.682;2023-07-31T12:42:49;2.47;;;1.83;;
21472;SDS011;10898;48.072;11.682;2023-07-31T12:46:54;4.10;;;2.03;;
21472;SDS011;10898;48.072;11.682;2023-07-31T12:48:56;1.83;;;1.67;;
21472;SDS011;10898;48.072;11.682;2023-07-31T12:50:57;4.22;;;1.85;;
21472;SDS011;10898;48.072;11.682;2023-07-31T12:52:59;3.13;;;1.83;;
21472;SDS011;10898;48.072;11.682;2023-07-31T12:55:01;1.63;;;1.52;;